Time;durP1;ratioP1;P1;durP2;ratioP2;P2;SDS_P1;SDS_P2;PMS_P1;PMS_P2;Temp;Humidity;BMP_temperature;BMP_pressure;BME280_temperature;BME280_humidity;BME280_pressure;Samples;Min_cycle;Max_cycle;Signal;HPM_P1;HPM_P2
2023/01/06 00:01:32;;;;;;;8.00;7.70;;;11.80;45.30;;;;;;5094699;28;20442;-61
2023/01/06 00:03:58;;;;;;;8.00;7.60;;;11.80;45.50;;;;;;5094945;28;20412;-61
2023/01/06 00:06:27;;;;;;;7.40;7.10;;;11.80;45.50;;;;;;5094821;28;20427;-61
2023/01/06 00:08:54;;;;;;;7.47;7.17;;;11.80;45.70;;;;;;5094624;28;20201;-61
2023/01/06 00:11:20;;;;;;;8.00;7.70;;;11.90;45.10;;;;;;5094594;28;20416;-61
2023/01/06 00:13:46;;;;;;;8.63;8.13;;;11.90;45.10;;;;;;5094336;28;20525;-61
2023/01/06 00:16:15;;;;;;;7.83;7.63;;;11.90;45.10;;;;;;5093427;28;20412;-61
2023/01/06 00:18:41;;;;;;;7.77;7.57;;;11.90;45.00;;;;;;5094234;28;20661;-61
2023/01/06 00:21:08;;;;;;;7.47;7.17;;;12.00;45.10;;;;;;5094252;28;20415;-61
2023/01/06 00:23:35;;;;;;;7.37;7.17;;;11.90;45.10;;;;;;5093539;28;20511;-61
2023/01/06 00:26:01;;;;;;;8.40;8.00;;;12.00;44.80;;;;;;5094135;28;20911;-61
2023/01/06 00:28:27;;;;;;;7.63;7.40;;;12.00;44.80;;;;;;5094873;28;20820;-61
2023/01/06 00:30:52;;;;;;;8.13;7.83;;;12.00;45.10;;;;;;5093129;28;20943;-61
2023/01/06 00:33:18;;;;;;;8.40;8.13;;;12.00;45.20;;;;;;5093477;28;20456;-61
2023/01/06 00:35:44;;;;;;;8.13;7.83;;;12.00;45.40;;;;;;5094199;28;20744;-61
2023/01/06 00:38:10;;;;;;;7.10;6.90;;;12.00;44.90;;;;;;5094086;28;20174;-61
2023/01/06 00:40:36;;;;;;;7.50;7.30;;;12.00;44.90;;;;;;5093447;28;20259;-62
2023/01/06 00:43:03;;;;;;;7.00;6.80;;;12.10;45.10;;;;;;5092919;28;20426;-61
2023/01/06 00:45:28;;;;;;;8.00;7.70;;;12.10;44.70;;;;;;5093508;28;20412;-61
2023/01/06 00:47:54;;;;;;;8.10;7.80;;;12.10;44.70;;;;;;5092998;28;20938;-62
2023/01/06 00:50:20;;;;;;;8.27;7.97;;;12.10;44.80;;;;;;5093908;28;20709;-62
2023/01/06 00:52:47;;;;;;;7.80;7.60;;;12.00;44.90;;;;;;5093131;28;20246;-60
2023/01/06 00:55:13;;;;;;;8.10;7.70;;;11.90;45.10;;;;;;5093555;28;20416;-61
2023/01/06 00:57:39;;;;;;;8.07;7.50;;;12.00;45.10;;;;;;5093207;28;20484;-61
2023/01/06 01:00:07;;;;;;;7.77;7.47;;;12.00;44.90;;;;;;5092926;28;20182;-61
2023/01/06 01:02:32;;;;;;;7.80;7.50;;;11.90;44.80;;;;;;5092809;28;20420;-61
2023/01/06 01:04:58;;;;;;;8.23;7.93;;;12.00;45.10;;;;;;5092674;28;20510;-61
2023/01/06 01:07:24;;;;;;;7.87;7.57;;;11.90;45.00;;;;;;5093622;28;20181;-61
2023/01/06 01:09:49;;;;;;;8.33;7.93;;;11.90;45.20;;;;;;5092902;28;20188;-61
2023/01/06 01:12:15;;;;;;;8.13;7.83;;;11.80;45.40;;;;;;5092987;28;20213;-61
2023/01/06 01:14:47;;;;;;;7.77;7.57;;;11.80;45.20;;;;;;5092560;28;20198;-61
2023/01/06 01:17:18;;;;;;;8.03;7.63;;;11.90;45.20;;;;;;5093165;28;20489;-61
2023/01/06 01:19:43;;;;;;;7.53;7.33;;;12.00;44.80;;;;;;5092600;28;20861;-61
2023/01/06 01:22:10;;;;;;;8.03;7.73;;;12.00;44.80;;;;;;5092334;28;20506;-61
2023/01/06 01:24:36;;;;;;;8.90;8.60;;;12.10;44.40;;;;;;5092666;28;20442;-61
2023/01/06 01:27:02;;;;;;;8.60;8.20;;;12.10;44.50;;;;;;5092332;28;20912;-61
2023/01/06 01:29:27;;;;;;;8.67;8.17;;;12.10;44.60;;;;;;5091855;28;20418;-61
2023/01/06 01:31:54;;;;;;;7.77;7.57;;;12.20;44.60;;;;;;5092395;28;20217;-61
2023/01/06 01:34:20;;;;;;;8.00;7.73;;;12.20;43.60;;;;;;5092100;28;20174;-62
2023/01/06 01:36:47;;;;;;;8.43;8.07;;;12.20;44.10;;;;;;5092341;28;20424;-61
2023/01/06 01:39:14;;;;;;;8.50;8.20;;;12.00;44.20;;;;;;5092106;28;20416;-57
2023/01/06 01:41:40;;;;;;;7.97;7.77;;;12.00;44.50;;;;;;5092344;28;20514;-57
2023/01/06 01:44:54;;;;;;;8.50;8.20;;;12.00;44.50;;;;;;5091788;28;20535;-57
2023/01/06 01:47:29;;;;;;;8.07;7.77;;;12.00;44.80;;;;;;5070887;28;20185;-57
2023/01/06 01:50:00;;;;;;;7.67;7.37;;;12.20;44.50;;;;;;5091778;28;20442;-57
2023/01/06 01:52:27;;;;;;;8.00;7.70;;;12.30;43.60;;;;;;5091911;28;20459;-57
2023/01/06 01:54:54;;;;;;;8.40;8.13;;;12.40;43.70;;;;;;5092061;28;20415;-56
2023/01/06 01:58:00;;;;;;;8.57;8.27;;;12.40;42.70;;;;;;5091951;28;20766;-57
2023/01/06 02:00:26;;;;;;;8.27;8.07;;;12.30;42.90;;;;;;5088416;28;20417;-57
2023/01/06 02:02:52;;;;;;;8.37;8.17;;;12.20;43.50;;;;;;5110073;28;20765;-57
2023/01/06 02:05:24;;;;;;;8.50;8.30;;;12.20;43.50;;;;;;5091958;28;20185;-57
2023/01/06 02:07:50;;;;;;;8.60;8.40;;;12.10;43.50;;;;;;5091415;28;20771;-57
2023/01/06 02:10:25;;;;;;;9.03;8.50;;;12.20;43.60;;;;;;5091773;28;20488;-57
2023/01/06 02:12:56;;;;;;;8.77;8.47;;;12.20;43.50;;;;;;5091623;28;20469;-56
2023/01/06 02:15:30;;;;;;;8.00;7.80;;;12.20;43.60;;;;;;5091766;28;20407;-57
2023/01/06 02:18:26;;;;;;;8.97;8.77;;;12.30;43.60;;;;;;5091689;28;20418;-57
2023/01/06 02:21:02;;;;;;;9.10;8.70;;;12.10;43.50;;;;;;5091225;28;20411;-57
2023/01/06 02:23:52;;;;;;;9.30;9.00;;;12.10;44.00;;;;;;5091666;28;20419;-57
2023/01/06 02:27:08;;;;;;;8.23;8.03;;;12.20;43.50;;;;;;5091550;28;20544;-57
2023/01/06 02:29:43;;;;;;;9.50;9.10;;;12.20;43.60;;;;;;5049220;28;20416;-56
2023/01/06 02:32:13;;;;;;;9.17;8.87;;;12.10;43.90;;;;;;5090817;28;20459;-56
2023/01/06 02:34:42;;;;;;;9.37;9.07;;;12.10;44.20;;;;;;5091490;28;20435;-56
2023/01/06 02:37:07;;;;;;;8.90;8.50;;;12.20;44.10;;;;;;5090965;28;20412;-56
2023/01/06 02:39:51;;;;;;;8.57;8.37;;;12.20;43.50;;;;;;5094480;28;20549;-56
2023/01/06 02:42:23;;;;;;;8.87;8.57;;;12.30;43.90;;;;;;5095398;28;20238;-57
2023/01/06 02:45:32;;;;;;;9.57;8.63;;;12.30;43.60;;;;;;5094951;28;20435;-57
2023/01/06 02:48:19;;;;;;;8.10;7.80;;;12.40;43.30;;;;;;5094942;28;20441;-57
2023/01/06 02:50:55;;;;;;;9.13;8.83;;;12.30;43.60;;;;;;5095176;28;20434;-57
2023/01/06 02:53:47;;;;;;;8.30;8.10;;;12.20;43.50;;;;;;5095180;28;20467;-57
2023/01/06 02:56:13;;;;;;;8.70;8.30;;;12.20;43.60;;;;;;5090258;28;20798;-57
2023/01/06 02:59:05;;;;;;;7.60;7.40;;;12.10;44.30;;;;;;5095617;28;20945;-57
2023/01/06 03:01:37;;;;;;;7.50;7.30;;;12.30;44.30;;;;;;5095492;28;20720;-56
2023/01/06 03:04:08;;;;;;;7.90;7.70;;;12.40;43.70;;;;;;5095506;28;20407;-57
2023/01/06 03:06:35;;;;;;;8.70;8.50;;;12.60;43.40;;;;;;5094698;28;20408;-57
2023/01/06 03:09:04;;;;;;;8.67;8.47;;;12.70;42.60;;;;;;5094635;28;20941;-57
2023/01/06 03:11:32;;;;;;;8.70;8.50;;;12.80;42.10;;;;;;5095165;28;20496;-57
2023/01/06 03:14:22;;;;;;;8.30;8.10;;;12.80;41.20;;;;;;5094876;28;20423;-57
2023/01/06 03:16:48;;;;;;;9.57;9.27;;;12.60;42.00;;;;;;5094942;28;20452;-56
2023/01/06 03:19:14;;;;;;;9.40;9.10;;;12.40;42.80;;;;;;5094337;28;20423;-57
2023/01/06 03:21:43;;;;;;;9.37;9.07;;;12.20;43.50;;;;;;5094363;28;20170;-57
2023/01/06 03:24:09;;;;;;;9.47;9.17;;;12.10;43.70;;;;;;5094761;28;20457;-55
2023/01/06 03:26:36;;;;;;;9.17;8.87;;;12.10;44.00;;;;;;5094512;28;20494;-56
2023/01/06 03:29:07;;;;;;;8.80;8.60;;;12.10;44.00;;;;;;5094026;28;20411;-57
2023/01/06 03:31:48;;;;;;;9.13;8.83;;;12.10;43.50;;;;;;5094331;28;20408;-57
2023/01/06 03:34:28;;;;;;;9.77;9.10;;;12.10;43.50;;;;;;5112865;28;20404;-55
2023/01/06 03:37:13;;;;;;;9.07;8.77;;;12.20;43.50;;;;;;5094113;28;20399;-57
2023/01/06 03:40:18;;;;;;;9.60;9.30;;;12.20;43.60;;;;;;5094267;28;20434;-57
2023/01/06 03:45:42;;;;;;;9.70;9.40;;;12.20;43.60;;;;;;5112647;28;20809;-57
2023/01/06 03:48:30;;;;;;;9.20;8.90;;;12.30;43.60;;;;;;5094651;28;20500;-57
2023/01/06 03:51:19;;;;;;;9.30;9.00;;;12.50;42.90;;;;;;5093837;28;20420;-57
2023/01/06 03:53:57;;;;;;;8.47;8.20;;;12.60;42.30;;;;;;5093772;28;20455;-57
2023/01/06 03:56:34;;;;;;;9.17;8.97;;;12.70;41.70;;;;;;5094224;28;20411;-57
2023/01/06 03:59:04;;;;;;;9.43;9.13;;;12.80;41.50;;;;;;5093714;28;20404;-58
2023/01/06 04:01:31;;;;;;;8.67;8.47;;;12.80;41.00;;;;;;5093207;28;20404;-57
2023/01/06 04:03:57;;;;;;;9.37;9.07;;;12.80;40.80;;;;;;5093977;28;20412;-57
2023/01/06 04:06:23;;;;;;;9.60;9.30;;;12.80;40.60;;;;;;5093429;28;21177;-58
2023/01/06 04:08:49;;;;;;;9.00;8.70;;;12.80;40.40;;;;;;5093824;28;20490;-57
2023/01/06 04:13:59;;;;;;;9.37;9.07;;;12.80;40.50;;;;;;5112504;28;20177;-56
2023/01/06 04:16:25;;;;;;;9.63;9.33;;;12.90;40.50;;;;;;5093418;28;20407;-56
2023/01/06 04:18:51;;;;;;;9.70;9.30;;;12.80;40.10;;;;;;5093348;28;20408;-56
2023/01/06 04:21:17;;;;;;;9.87;9.50;;;12.80;40.10;;;;;;5092995;28;20751;-57
2023/01/06 04:23:42;;;;;;;9.00;8.70;;;12.80;40.10;;;;;;5093218;28;20186;-57
2023/01/06 04:26:08;;;;;;;9.23;8.90;;;12.70;40.10;;;;;;5093346;28;20431;-57
2023/01/06 04:28:34;;;;;;;10.17;9.77;;;12.50;41.30;;;;;;5093131;28;20186;-57
2023/01/06 04:31:01;;;;;;;9.73;9.40;;;12.30;41.60;;;;;;5093455;28;20583;-57
2023/01/06 04:33:27;;;;;;;9.00;8.70;;;12.00;43.10;;;;;;5093067;28;20209;-57
2023/01/06 04:35:52;;;;;;;10.00;9.50;;;11.90;43.30;;;;;;5093432;28;20404;-57
2023/01/06 04:38:18;;;;;;;9.47;9.17;;;11.90;43.30;;;;;;5093027;28;20423;-57
2023/01/06 04:40:44;;;;;;;8.53;8.30;;;11.90;43.30;;;;;;5092745;28;20601;-58
2023/01/06 04:43:15;;;;;;;8.70;8.50;;;12.00;44.00;;;;;;5093309;28;20544;-57
2023/01/06 04:45:41;;;;;;;9.10;8.43;;;12.20;43.60;;;;;;5092865;28;20646;-56
2023/01/06 04:48:08;;;;;;;8.80;8.50;;;12.50;42.20;;;;;;5093791;28;20503;-56
2023/01/06 04:50:34;;;;;;;9.13;8.83;;;12.60;41.50;;;;;;5112547;28;20422;-57
2023/01/06 04:53:00;;;;;;;8.47;8.23;;;12.70;40.70;;;;;;5093254;28;20456;-57
2023/01/06 04:55:25;;;;;;;9.00;8.70;;;12.90;40.20;;;;;;5093709;28;20178;-57
2023/01/06 04:57:51;;;;;;;8.10;7.90;;;13.00;39.70;;;;;;5094258;28;20236;-55
2023/01/06 05:00:18;;;;;;;8.23;8.03;;;13.00;38.90;;;;;;5094590;28;20223;-57
2023/01/06 05:02:44;;;;;;;7.83;7.63;;;13.10;38.60;;;;;;5093283;28;20583;-57
2023/01/06 05:05:10;;;;;;;8.50;8.30;;;13.10;38.40;;;;;;5093888;28;20431;-57
2023/01/06 05:07:36;;;;;;;7.83;7.63;;;13.20;38.50;;;;;;5094344;28;20452;-57
2023/01/06 05:10:02;;;;;;;8.90;8.50;;;13.20;38.20;;;;;;5094240;28;20446;-56
2023/01/06 05:12:28;;;;;;;8.70;8.40;;;13.20;38.30;;;;;;5094528;28;20202;-56
2023/01/06 05:14:53;;;;;;;8.60;8.30;;;13.30;37.80;;;;;;5094715;28;20778;-56
2023/01/06 05:17:19;;;;;;;8.70;8.30;;;13.00;38.50;;;;;;5094382;28;20177;-57
2023/01/06 05:19:45;;;;;;;8.57;8.27;;;13.00;38.40;;;;;;5094708;28;20182;-58
2023/01/06 05:22:11;;;;;;;8.10;7.90;;;13.00;39.00;;;;;;5094207;28;20178;-57
2023/01/06 05:24:36;;;;;;;9.00;8.60;;;12.90;38.60;;;;;;5094735;28;20217;-57
2023/01/06 05:27:02;;;;;;;9.00;8.70;;;12.80;39.30;;;;;;5094837;28;20568;-56
2023/01/06 05:29:28;;;;;;;8.23;7.93;;;12.70;39.00;;;;;;5094760;28;20185;-57
2023/01/06 05:31:54;;;;;;;8.57;8.33;;;12.60;40.30;;;;;;5094455;28;20420;-57
2023/01/06 05:34:19;;;;;;;8.47;8.27;;;12.60;40.00;;;;;;5094857;28;20178;-57
2023/01/06 05:36:45;;;;;;;9.10;8.80;;;12.70;40.40;;;;;;5094554;28;20182;-57
2023/01/06 05:39:11;;;;;;;8.03;7.73;;;12.80;40.20;;;;;;5094676;28;20181;-57
2023/01/06 05:41:36;;;;;;;8.37;8.00;;;12.90;39.60;;;;;;5093999;28;20553;-57
2023/01/06 05:44:02;;;;;;;8.80;8.50;;;13.00;39.30;;;;;;5094508;28;20650;-57
2023/01/06 05:46:28;;;;;;;7.97;7.77;;;13.00;38.80;;;;;;5094515;28;20227;-59
2023/01/06 05:48:53;;;;;;;8.53;8.23;;;13.10;38.70;;;;;;5094586;28;20174;-59
2023/01/06 05:51:19;;;;;;;9.03;8.63;;;13.10;38.30;;;;;;5094250;28;20174;-59
2023/01/06 05:53:46;;;;;;;8.40;8.10;;;13.10;38.40;;;;;;5094411;28;20300;-59
2023/01/06 05:56:14;;;;;;;8.90;8.60;;;13.10;38.30;;;;;;5094292;28;20177;-59
2023/01/06 05:58:44;;;;;;;8.70;8.40;;;13.00;38.20;;;;;;5094312;28;20893;-59
2023/01/06 06:01:24;;;;;;;9.50;9.20;;;12.90;39.20;;;;;;5093783;28;20909;-59
2023/01/06 06:03:51;;;;;;;8.63;8.43;;;12.70;39.50;;;;;;5094431;28;20420;-59
2023/01/06 06:06:18;;;;;;;9.17;8.87;;;12.60;40.40;;;;;;5094333;28;20809;-59
2023/01/06 06:08:44;;;;;;;9.30;9.00;;;12.70;40.50;;;;;;5112101;28;20404;-59
2023/01/06 06:11:12;;;;;;;8.60;8.30;;;12.70;40.10;;;;;;5094569;28;20430;-59
2023/01/06 06:13:43;;;;;;;8.70;8.40;;;12.70;40.10;;;;;;5092007;28;20464;-58
2023/01/06 06:16:11;;;;;;;8.47;8.17;;;12.70;40.00;;;;;;5101280;28;20419;-58
2023/01/06 06:18:42;;;;;;;8.13;7.83;;;12.90;39.80;;;;;;5093729;28;20419;-58
2023/01/06 06:21:12;;;;;;;8.50;8.23;;;13.00;39.60;;;;;;5093898;28;20412;-59
2023/01/06 06:23:38;;;;;;;8.03;7.73;;;12.90;38.80;;;;;;5093519;28;20900;-59
2023/01/06 06:26:04;;;;;;;9.00;8.70;;;12.90;38.70;;;;;;5086191;28;20485;-59
2023/01/06 06:28:31;;;;;;;8.20;7.83;;;12.80;38.50;;;;;;5073767;28;20420;-59
2023/01/06 06:31:12;;;;;;;8.80;8.50;;;12.50;39.80;;;;;;5073535;28;20420;-59
2023/01/06 06:33:38;;;;;;;8.30;8.00;;;12.30;40.50;;;;;;5073444;28;20479;-64
2023/01/06 06:36:05;;;;;;;8.57;8.30;;;12.40;40.40;;;;;;5073478;28;20408;-63
2023/01/06 06:38:31;;;;;;;8.57;8.27;;;12.30;40.60;;;;;;5073559;28;20413;-59
2023/01/06 06:40:56;;;;;;;8.43;8.13;;;12.30;40.80;;;;;;5078420;28;20415;-59
2023/01/06 06:43:22;;;;;;;8.70;8.40;;;12.30;41.00;;;;;;5093614;28;20200;-59
2023/01/06 06:45:48;;;;;;;8.20;7.97;;;12.20;40.90;;;;;;5093888;28;20182;-59
2023/01/06 06:48:15;;;;;;;8.40;8.10;;;12.20;41.40;;;;;;5093910;28;20177;-59
2023/01/06 06:50:40;;;;;;;8.20;8.00;;;12.00;42.30;;;;;;5093471;28;20408;-59
2023/01/06 06:53:06;;;;;;;8.20;7.90;;;12.00;42.60;;;;;;5093522;28;20470;-59
2023/01/06 06:55:33;;;;;;;8.07;7.77;;;11.70;43.10;;;;;;5093587;28;20178;-59
2023/01/06 06:57:58;;;;;;;8.30;8.00;;;11.60;43.80;;;;;;5111917;28;20408;-59
2023/01/06 07:00:25;;;;;;;8.60;8.30;;;11.60;44.30;;;;;;5093397;28;20415;-59
2023/01/06 07:02:51;;;;;;;8.50;8.07;;;11.60;44.60;;;;;;5093446;28;20549;-59
2023/01/06 07:05:17;;;;;;;7.70;7.50;;;11.60;44.40;;;;;;5093191;28;20428;-60
2023/01/06 07:07:43;;;;;;;8.70;8.40;;;11.70;44.30;;;;;;5092954;28;20416;-60
2023/01/06 07:10:15;;;;;;;7.53;7.33;;;11.60;44.30;;;;;;5092818;28;20420;-60
2023/01/06 07:12:41;;;;;;;7.23;7.03;;;11.60;44.40;;;;;;5092842;28;20478;-59
2023/01/06 07:15:08;;;;;;;9.70;9.13;;;11.70;44.10;;;;;;5093116;28;20416;-59
2023/01/06 07:17:33;;;;;;;7.67;7.37;;;11.70;44.10;;;;;;5093265;28;20606;-59
2023/01/06 07:19:59;;;;;;;7.80;7.60;;;11.60;44.00;;;;;;5093155;28;20506;-59
2023/01/06 07:22:25;;;;;;;7.47;7.13;;;11.60;44.30;;;;;;5095349;28;20180;-59
2023/01/06 07:24:50;;;;;;;7.47;7.17;;;11.50;45.30;;;;;;5095305;28;20294;-59
2023/01/06 07:27:16;;;;;;;7.30;7.10;;;11.50;46.20;;;;;;5097428;28;20217;-57
2023/01/06 07:29:42;;;;;;;7.70;7.50;;;11.50;45.40;;;;;;5115640;28;20619;-58
2023/01/06 07:32:08;;;;;;;7.23;7.03;;;11.60;45.70;;;;;;5097092;28;20206;-58
2023/01/06 07:34:34;;;;;;;7.87;7.57;;;11.80;45.90;;;;;;5096844;28;20209;-57
2023/01/06 07:36:59;;;;;;;7.00;6.80;;;11.80;45.00;;;;;;5092377;28;20873;-58
2023/01/06 07:39:25;;;;;;;6.60;6.40;;;12.00;44.90;;;;;;5096542;28;20181;-58
2023/01/06 07:41:51;;;;;;;7.20;7.00;;;12.20;44.10;;;;;;5093004;28;20176;-58
2023/01/06 07:44:16;;;;;;;7.73;7.43;;;12.40;43.40;;;;;;5096236;28;20189;-57
2023/01/06 07:46:42;;;;;;;8.20;8.00;;;12.50;42.50;;;;;;5096030;28;20185;-58
2023/01/06 07:49:08;;;;;;;7.73;7.33;;;12.60;41.90;;;;;;5096751;28;20174;-57
2023/01/06 07:51:33;;;;;;;7.90;7.60;;;12.60;41.90;;;;;;5096668;28;20178;-57
2023/01/06 07:54:00;;;;;;;7.80;7.60;;;12.60;41.90;;;;;;5096395;28;20213;-57
2023/01/06 07:56:26;;;;;;;7.57;7.27;;;12.60;42.40;;;;;;5096737;28;20178;-57
2023/01/06 07:58:53;;;;;;;7.10;6.90;;;12.60;43.30;;;;;;5096363;28;20491;-57
2023/01/06 08:01:19;;;;;;;7.30;7.00;;;12.60;43.90;;;;;;5096322;28;20174;-57
2023/01/06 08:03:44;;;;;;;6.97;6.70;;;12.60;43.90;;;;;;5096020;28;20412;-57
2023/01/06 08:06:11;;;;;;;8.23;7.97;;;12.50;44.80;;;;;;5109665;27;20261;-57
2023/01/06 08:08:39;;;;;;;7.13;6.93;;;12.60;45.50;;;;;;5107503;28;20186;-57
2023/01/06 08:11:10;;;;;;;6.73;6.53;;;12.60;46.00;;;;;;5096136;28;20516;-57
2023/01/06 08:13:36;;;;;;;7.67;7.47;;;12.60;46.50;;;;;;5096047;28;20512;-56
2023/01/06 08:16:06;;;;;;;7.53;7.33;;;12.60;46.60;;;;;;5114474;28;20404;-57
2023/01/06 08:18:32;;;;;;;7.80;7.60;;;12.60;46.50;;;;;;5096003;28;20426;-57
2023/01/06 08:21:06;;;;;;;7.70;7.50;;;12.60;47.10;;;;;;5096135;28;20806;-57
2023/01/06 08:23:33;;;;;;;7.70;7.40;;;12.60;47.20;;;;;;5095988;28;20514;-57
2023/01/06 08:26:13;;;;;;;7.90;7.60;;;12.60;47.40;;;;;;5095944;28;20423;-56
2023/01/06 08:28:43;;;;;;;6.73;6.53;;;12.60;47.70;;;;;;5095802;28;20446;-57
2023/01/06 08:31:10;;;;;;;7.53;7.33;;;12.60;48.10;;;;;;5095968;28;20420;-57
2023/01/06 08:33:36;;;;;;;7.20;7.00;;;12.70;48.30;;;;;;5095757;28;20460;-57
2023/01/06 08:36:04;;;;;;;7.07;6.87;;;12.70;48.30;;;;;;5094703;28;20425;-57
2023/01/06 08:38:30;;;;;;;7.00;6.80;;;12.70;48.20;;;;;;5102350;28;20185;-56
2023/01/06 08:40:57;;;;;;;8.13;7.73;;;12.70;48.20;;;;;;5095484;28;20439;-57
2023/01/06 08:43:23;;;;;;;7.10;6.90;;;12.70;47.90;;;;;;5095434;28;20439;-56
2023/01/06 08:45:49;;;;;;;7.60;7.30;;;12.70;47.50;;;;;;5113935;28;20415;-57
2023/01/06 08:48:16;;;;;;;7.80;7.60;;;12.70;47.40;;;;;;5095555;28;20535;-55
2023/01/06 08:50:42;;;;;;;7.37;7.07;;;12.60;47.60;;;;;;5095223;28;20832;-57
2023/01/06 08:53:09;;;;;;;8.10;7.90;;;12.60;47.90;;;;;;5095591;28;20467;-57
2023/01/06 08:55:39;;;;;;;7.37;7.17;;;12.60;47.40;;;;;;5095240;28;20416;-56
2023/01/06 08:58:05;;;;;;;7.17;6.97;;;12.60;47.80;;;;;;5095501;28;20416;-57
2023/01/06 09:00:31;;;;;;;7.50;7.30;;;12.60;47.30;;;;;;5095016;28;20442;-57
2023/01/06 09:02:57;;;;;;;6.90;6.70;;;12.50;47.00;;;;;;5095037;28;20780;-57
2023/01/06 09:05:22;;;;;;;7.47;7.27;;;12.20;47.50;;;;;;5095295;28;20694;-57
2023/01/06 09:07:49;;;;;;;7.20;6.80;;;12.10;48.50;;;;;;5095091;28;20184;-56
2023/01/06 09:10:16;;;;;;;7.07;6.87;;;12.00;48.80;;;;;;5095027;28;20277;-56
2023/01/06 09:12:42;;;;;;;7.30;7.10;;;12.10;48.60;;;;;;5094523;28;20455;-55
2023/01/06 09:15:08;;;;;;;7.70;7.40;;;12.00;48.80;;;;;;5094978;28;20418;-56
2023/01/06 09:17:33;;;;;;;7.60;7.40;;;12.20;48.40;;;;;;5094860;28;20771;-56
2023/01/06 09:19:59;;;;;;;6.70;6.50;;;12.20;48.20;;;;;;5113133;28;20178;-56
2023/01/06 09:22:25;;;;;;;7.67;7.47;;;12.20;46.60;;;;;;5089205;28;20228;-57
2023/01/06 09:24:50;;;;;;;7.70;7.40;;;12.00;47.20;;;;;;5094515;28;20182;-56
2023/01/06 09:27:16;;;;;;;7.63;7.30;;;12.00;46.30;;;;;;5094869;28;20178;-57
2023/01/06 09:29:42;;;;;;;7.03;6.80;;;11.90;46.80;;;;;;5094356;28;20257;-57
2023/01/06 09:32:08;;;;;;;6.57;6.37;;;11.90;47.40;;;;;;5094198;28;20526;-56
2023/01/06 09:34:33;;;;;;;6.50;6.30;;;11.90;47.30;;;;;;5102904;28;20181;-57
2023/01/06 09:36:59;;;;;;;7.00;6.80;;;11.90;46.80;;;;;;5111551;28;20424;-58
2023/01/06 09:39:25;;;;;;;8.23;7.60;;;11.80;47.10;;;;;;5109507;28;20233;-55
2023/01/06 09:42:14;;;;;;;6.47;6.37;;;11.90;47.10;;;;;;5093933;28;20210;-56
2023/01/06 09:44:54;;;;;;;6.83;6.63;;;12.00;46.90;;;;;;5045496;28;20499;-56
2023/01/06 09:47:28;;;;;;;7.17;6.97;;;12.00;45.70;;;;;;5094608;28;20466;-56
2023/01/06 09:50:13;;;;;;;6.97;6.77;;;12.10;45.40;;;;;;5094263;28;20419;-57
2023/01/06 09:52:47;;;;;;;7.20;7.00;;;12.20;45.30;;;;;;5093438;28;20595;-56
2023/01/06 09:55:25;;;;;;;6.97;6.77;;;12.10;44.40;;;;;;5094330;28;20418;-56
2023/01/06 09:58:10;;;;;;;7.10;6.80;;;11.90;44.00;;;;;;5094247;28;20446;-56
2023/01/06 10:00:39;;;;;;;6.60;6.40;;;12.10;44.80;;;;;;5093382;28;20729;-57
2023/01/06 10:03:11;;;;;;;7.27;6.60;;;12.30;44.30;;;;;;5112120;28;20458;-57
2023/01/06 10:05:58;;;;;;;6.47;6.27;;;12.40;43.70;;;;;;5093984;28;20412;-57
2023/01/06 10:08:51;;;;;;;7.47;7.27;;;12.50;42.80;;;;;;5093903;28;20831;-57
2023/01/06 10:11:25;;;;;;;7.50;7.30;;;12.40;42.90;;;;;;5093400;28;20420;-57
2023/01/06 10:13:55;;;;;;;7.63;7.43;;;12.40;43.70;;;;;;5091268;28;20470;-57
2023/01/06 10:16:36;;;;;;;7.70;7.50;;;12.40;43.20;;;;;;5094073;28;20444;-57
2023/01/06 10:19:20;;;;;;;7.23;7.03;;;12.40;42.90;;;;;;5094102;28;20460;-57
2023/01/06 10:21:56;;;;;;;7.03;6.83;;;12.50;42.60;;;;;;5093824;28;20415;-57
2023/01/06 10:24:50;;;;;;;7.10;6.90;;;12.50;43.10;;;;;;5098152;28;20511;-58
2023/01/06 10:27:25;;;;;;;7.03;6.83;;;12.30;42.70;;;;;;5088034;28;20423;-58
2023/01/06 10:29:53;;;;;;;8.07;7.77;;;12.30;42.60;;;;;;5088453;28;20518;-56
2023/01/06 10:32:20;;;;;;;11.10;10.50;;;12.30;42.70;;;;;;5091828;28;20462;-56
2023/01/06 10:34:48;;;;;;;9.30;8.90;;;12.30;42.80;;;;;;5093591;28;20760;-57
2023/01/06 10:37:21;;;;;;;7.03;6.83;;;12.40;43.20;;;;;;5093148;28;20875;-55
2023/01/06 10:39:53;;;;;;;7.70;7.50;;;12.40;41.70;;;;;;5099883;28;20455;-56
2023/01/06 10:42:56;;;;;;;7.27;6.80;;;12.40;41.70;;;;;;5073548;28;20444;-56
2023/01/06 10:45:43;;;;;;;6.50;6.33;;;12.30;40.20;;;;;;5075191;28;20438;-56
2023/01/06 10:48:23;;;;;;;6.93;6.73;;;12.40;40.80;;;;;;5110810;28;20833;-57
2023/01/06 10:50:49;;;;;;;6.20;6.00;;;12.40;40.10;;;;;;5110667;28;20474;-57
2023/01/06 10:53:15;;;;;;;6.43;6.00;;;12.30;37.90;;;;;;5110268;28;20879;-57
2023/01/06 10:55:54;;;;;;;6.13;6.03;;;12.20;39.10;;;;;;5103869;28;20273;-57
2023/01/06 10:58:45;;;;;;;6.70;6.50;;;12.30;39.80;;;;;;5093693;28;20447;-57
2023/01/06 11:01:16;;;;;;;7.17;6.97;;;12.50;39.20;;;;;;5097422;28;20767;-56
2023/01/06 11:03:43;;;;;;;6.20;6.00;;;12.50;39.20;;;;;;5097297;28;20415;-57
2023/01/06 11:06:26;;;;;;;5.90;5.80;;;12.60;38.50;;;;;;5097560;28;20411;-57
2023/01/06 11:08:52;;;;;;;6.50;6.30;;;12.50;37.90;;;;;;5115665;28;20414;-57
2023/01/06 11:11:19;;;;;;;6.30;6.20;;;12.50;38.70;;;;;;5113385;28;20921;-57
2023/01/06 11:13:50;;;;;;;6.93;6.70;;;12.50;38.60;;;;;;5096196;28;20486;-57
2023/01/06 11:16:23;;;;;;;7.43;7.23;;;12.40;38.00;;;;;;5097115;28;20832;-57
2023/01/06 11:19:23;;;;;;;6.93;6.73;;;12.40;38.80;;;;;;5089001;28;20412;-58
2023/01/06 11:21:48;;;;;;;7.07;6.87;;;12.20;39.60;;;;;;5085955;28;20427;-57
2023/01/06 11:24:17;;;;;;;7.67;7.47;;;12.20;39.70;;;;;;5096637;28;20419;-56
2023/01/06 11:27:16;;;;;;;7.60;7.30;;;12.20;40.00;;;;;;5096414;28;20176;-57
2023/01/06 11:29:41;;;;;;;6.00;5.90;;;12.40;40.10;;;;;;5087142;28;20508;-58
2023/01/06 11:32:25;;;;;;;8.87;8.17;;;12.40;39.50;;;;;;5096842;28;20471;-56
2023/01/06 11:34:54;;;;;;;6.93;6.73;;;12.40;39.50;;;;;;5097069;28;20186;-57
2023/01/06 11:37:36;;;;;;;6.30;6.20;;;12.50;39.70;;;;;;5097402;28;20654;-57
2023/01/06 11:40:15;;;;;;;6.50;6.30;;;12.50;40.80;;;;;;5097090;28;20848;-57
2023/01/06 11:42:41;;;;;;;6.70;6.50;;;12.60;39.80;;;;;;5096301;28;21053;-58
2023/01/06 11:45:07;;;;;;;6.67;6.47;;;12.50;39.70;;;;;;5096567;28;20443;-57
2023/01/06 11:47:33;;;;;;;7.50;7.30;;;12.70;39.70;;;;;;5108932;27;20441;-57
2023/01/06 11:50:00;;;;;;;7.33;7.03;;;12.60;38.90;;;;;;5097698;28;20208;-57
2023/01/06 11:52:31;;;;;;;7.00;6.70;;;12.50;38.00;;;;;;5096742;28;20985;-57
2023/01/06 11:55:01;;;;;;;6.83;6.53;;;12.50;39.50;;;;;;5096525;28;20423;-58
2023/01/06 11:57:43;;;;;;;6.87;6.67;;;12.60;39.20;;;;;;5096437;28;20424;-57
2023/01/06 12:00:33;;;;;;;6.53;6.33;;;12.50;38.30;;;;;;5095819;28;20907;-57
2023/01/06 12:03:18;;;;;;;6.20;6.00;;;12.50;39.00;;;;;;5093977;28;20789;-57
2023/01/06 12:05:51;;;;;;;7.00;6.80;;;12.60;39.00;;;;;;5096095;28;20441;-57
2023/01/06 12:08:24;;;;;;;6.90;6.70;;;12.60;38.90;;;;;;5094506;28;20479;-57
2023/01/06 12:11:27;;;;;;;6.70;6.50;;;12.50;37.60;;;;;;5092899;28;20923;-57
2023/01/06 12:13:53;;;;;;;6.17;6.07;;;12.50;38.70;;;;;;5094907;28;20931;-57
2023/01/06 12:16:44;;;;;;;6.70;6.50;;;12.40;37.80;;;;;;5094595;28;20427;-57
2023/01/06 12:19:19;;;;;;;6.50;6.30;;;12.40;38.80;;;;;;5085875;28;20209;-58
2023/01/06 12:21:44;;;;;;;6.83;6.63;;;12.50;38.80;;;;;;5095313;28;20492;-58
2023/01/06 12:24:15;;;;;;;7.20;7.00;;;12.60;38.40;;;;;;5095043;28;20408;-58
2023/01/06 12:26:42;;;;;;;7.07;6.77;;;12.80;37.30;;;;;;5094481;28;20201;-57
2023/01/06 12:29:13;;;;;;;7.00;6.80;;;12.90;36.50;;;;;;5092577;28;20502;-58
2023/01/06 12:31:51;;;;;;;6.47;6.37;;;12.80;37.00;;;;;;5092544;28;20918;-58
2023/01/06 12:34:23;;;;;;;7.00;6.80;;;12.90;36.90;;;;;;5091868;28;20500;-58
2023/01/06 12:37:14;;;;;;;7.17;6.97;;;13.00;36.40;;;;;;5092497;28;20399;-57
2023/01/06 12:39:59;;;;;;;7.30;6.93;;;13.20;35.80;;;;;;5093456;28;20408;-57
2023/01/06 12:42:38;;;;;;;6.37;6.10;;;13.30;34.40;;;;;;5093222;28;20420;-58
2023/01/06 12:45:23;;;;;;;7.40;7.20;;;13.30;34.40;;;;;;5092595;28;20436;-57
2023/01/06 12:47:53;;;;;;;7.10;6.80;;;13.30;34.00;;;;;;5094233;28;20529;-58
2023/01/06 12:50:36;;;;;;;6.87;6.67;;;13.30;33.90;;;;;;5092060;28;20908;-58
2023/01/06 12:53:05;;;;;;;6.63;6.43;;;13.30;34.40;;;;;;5092552;28;20498;-57
2023/01/06 12:55:57;;;;;;;6.23;6.10;;;13.40;34.50;;;;;;5094695;28;20737;-57
2023/01/06 12:59:00;;;;;;;7.20;7.00;;;13.40;34.70;;;;;;5062183;28;20913;-58
2023/01/06 13:01:44;;;;;;;7.40;7.10;;;13.40;35.40;;;;;;5031898;28;20923;-57
2023/01/06 13:04:32;;;;;;;7.80;7.60;;;13.40;34.70;;;;;;5089628;28;20425;-57
2023/01/06 13:07:10;;;;;;;7.60;7.40;;;13.50;34.60;;;;;;5073876;28;20929;-58
2023/01/06 13:09:47;;;;;;;6.73;6.50;;;13.50;34.60;;;;;;5074353;28;20920;-58
2023/01/06 13:12:43;;;;;;;6.67;6.47;;;13.50;34.60;;;;;;5093911;28;20455;-59